Time;durP1;ratioP1;P1;durP2;ratioP2;P2;SDS_P1;SDS_P2;PMS_P1;PMS_P2;Temp;Humidity;BMP_temperature;BMP_pressure;BME280_temperature;BME280_humidity;BME280_pressure;Samples;Min_cycle;Max_cycle;Signal;HPM_P1;HPM_P2
2022/06/01 00:00:43;;;;;;;2.97;2.27;;;;;;;;;;5041139;28;20249;-80
2022/06/01 00:03:10;;;;;;;4.37;2.30;;;;;;;;;;5025067;28;20207;-80
2022/06/01 00:05:37;;;;;;;3.60;2.50;;;;;;;;;;5021861;28;20235;-80
2022/06/01 00:08:05;;;;;;;2.13;2.03;;;;;;;;;;5021160;28;20596;-80
2022/06/01 00:10:33;;;;;;;2.43;2.23;;;;;;;;;;5043815;22;20283;-85
2022/06/01 00:13:01;;;;;;;3.07;2.53;;;;;;;;;;5067267;28;20658;-82
2022/06/01 00:15:28;;;;;;;2.30;2.20;;;;;;;;;;5072973;28;20735;-81
2022/06/01 00:17:57;;;;;;;2.97;2.30;;;;;;;;;;5074679;28;20201;-80
2022/06/01 00:20:24;;;;;;;2.67;2.47;;;;;;;;;;5074110;28;20634;-81
2022/06/01 00:22:51;;;;;;;2.60;2.40;;;;;;;;;;5074044;28;20205;-82
2022/06/01 00:25:19;;;;;;;2.63;2.43;;;;;;;;;;5073155;28;20237;-82
2022/06/01 00:27:47;;;;;;;2.63;2.43;;;;;;;;;;5074534;28;20213;-82
2022/06/01 00:30:15;;;;;;;5.33;2.40;;;;;;;;;;5073644;28;20237;-82
2022/06/01 00:32:42;;;;;;;5.37;2.70;;;;;;;;;;5074912;28;20201;-82
2022/06/01 00:35:10;;;;;;;3.07;2.80;;;;;;;;;;5073200;28;20259;-82
2022/06/01 00:37:37;;;;;;;2.47;2.30;;;;;;;;;;5073728;28;20201;-82
2022/06/01 00:40:05;;;;;;;3.87;2.33;;;;;;;;;;5073295;28;20243;-82
2022/06/01 00:42:33;;;;;;;2.33;2.13;;;;;;;;;;5074098;28;20208;-82
2022/06/01 00:45:01;;;;;;;2.67;2.47;;;;;;;;;;5073478;28;20237;-82
2022/06/01 00:47:29;;;;;;;2.27;2.13;;;;;;;;;;5074000;28;20209;-81
2022/06/01 00:49:58;;;;;;;2.60;2.40;;;;;;;;;;5073393;28;20208;-81
2022/06/01 00:55:09;;;;;;;2.30;2.20;;;;;;;;;;5070621;28;20245;-81
2022/06/01 00:57:36;;;;;;;3.63;2.77;;;;;;;;;;5075519;28;20218;-81
2022/06/01 01:00:06;;;;;;;2.73;2.43;;;;;;;;;;5061795;28;20241;-81
2022/06/01 01:02:33;;;;;;;2.83;2.63;;;;;;;;;;5054225;28;20199;-82
2022/06/01 01:05:01;;;;;;;2.83;2.63;;;;;;;;;;5053274;28;20241;-82
2022/06/01 01:07:28;;;;;;;2.40;2.20;;;;;;;;;;5059687;28;20279;-82
2022/06/01 01:09:55;;;;;;;3.00;2.80;;;;;;;;;;5065564;28;20236;-81
2022/06/01 01:12:22;;;;;;;2.93;2.70;;;;;;;;;;5072773;28;20256;-82
2022/06/01 01:14:49;;;;;;;3.10;2.80;;;;;;;;;;5072418;28;20711;-81
2022/06/01 01:17:19;;;;;;;2.80;2.60;;;;;;;;;;5074196;28;20216;-81
2022/06/01 01:19:48;;;;;;;2.40;2.20;;;;;;;;;;5073510;28;20193;-81
2022/06/01 01:22:23;;;;;;;2.73;2.50;;;;;;;;;;5074066;28;20229;-82
2022/06/01 01:25:05;;;;;;;2.83;2.33;;;;;;;;;;5073088;28;20197;-82
2022/06/01 01:27:34;;;;;;;4.20;2.47;;;;;;;;;;5074281;28;20618;-82
2022/06/01 01:30:01;;;;;;;3.33;2.57;;;;;;;;;;5073726;28;20623;-82
2022/06/01 01:32:28;;;;;;;2.87;2.67;;;;;;;;;;5074409;28;20572;-82
2022/06/01 01:34:55;;;;;;;3.10;2.80;;;;;;;;;;5072883;28;20229;-82
2022/06/01 01:37:24;;;;;;;2.63;2.43;;;;;;;;;;5072862;28;20202;-82
2022/06/01 01:39:53;;;;;;;3.97;2.43;;;;;;;;;;5072312;28;20209;-82
2022/06/01 01:42:20;;;;;;;2.93;2.47;;;;;;;;;;5073211;28;20232;-81
2022/06/01 01:44:53;;;;;;;2.87;2.67;;;;;;;;;;5071854;28;20201;-82
2022/06/01 01:47:20;;;;;;;3.83;3.53;;;;;;;;;;5072736;28;20193;-82
2022/06/01 01:49:47;;;;;;;3.70;2.47;;;;;;;;;;5072297;28;20707;-81
2022/06/01 01:52:16;;;;;;;3.07;2.30;;;;;;;;;;5072707;28;20228;-82
2022/06/01 01:54:48;;;;;;;2.80;2.60;;;;;;;;;;5072506;28;20306;-81
2022/06/01 01:57:21;;;;;;;2.80;2.60;;;;;;;;;;5073495;28;20193;-81
2022/06/01 01:59:55;;;;;;;2.83;2.63;;;;;;;;;;5072603;28;20300;-81
2022/06/01 02:02:26;;;;;;;3.00;2.80;;;;;;;;;;5073863;28;20233;-81
2022/06/01 02:07:45;;;;;;;3.93;2.87;;;;;;;;;;5074853;28;20625;-82
2022/06/01 02:12:58;;;;;;;5.27;2.93;;;;;;;;;;5073568;28;20219;-81
2022/06/01 02:15:30;;;;;;;3.30;3.00;;;;;;;;;;5073480;28;20237;-81
2022/06/01 02:17:58;;;;;;;4.17;3.20;;;;;;;;;;5074760;28;20633;-80
2022/06/01 02:20:28;;;;;;;2.70;2.40;;;;;;;;;;5072486;28;20260;-80
2022/06/01 02:22:55;;;;;;;2.80;2.60;;;;;;;;;;5072868;28;20205;-80
2022/06/01 02:25:23;;;;;;;3.00;2.80;;;;;;;;;;5073324;28;20716;-80
2022/06/01 02:27:51;;;;;;;3.33;3.03;;;;;;;;;;5074168;28;20799;-80
2022/06/01 02:30:20;;;;;;;5.40;3.00;;;;;;;;;;5073609;28;20248;-80
2022/06/01 02:32:49;;;;;;;5.23;3.37;;;;;;;;;;5073770;28;20665;-80
2022/06/01 02:35:18;;;;;;;3.20;2.90;;;;;;;;;;5073549;28;20245;-80
2022/06/01 02:37:48;;;;;;;3.20;2.67;;;;;;;;;;5073754;28;20213;-80
2022/06/01 02:40:18;;;;;;;3.70;3.40;;;;;;;;;;5074800;28;20300;-81
2022/06/01 02:42:50;;;;;;;2.83;2.63;;;;;;;;;;5075012;28;20285;-81
2022/06/01 02:45:18;;;;;;;2.67;2.47;;;;;;;;;;5074222;28;20233;-80
2022/06/01 02:47:46;;;;;;;3.33;3.03;;;;;;;;;;5074231;28;20216;-80
2022/06/01 02:50:17;;;;;;;3.40;2.60;;;;;;;;;;5074250;28;20237;-81
2022/06/01 02:52:45;;;;;;;3.30;3.00;;;;;;;;;;5074203;28;20559;-81
2022/06/01 02:55:13;;;;;;;3.60;3.03;;;;;;;;;;5073724;28;20728;-81
2022/06/01 02:57:41;;;;;;;3.13;2.83;;;;;;;;;;5074838;28;20213;-81
2022/06/01 03:00:10;;;;;;;3.10;2.87;;;;;;;;;;5073952;28;20264;-80
2022/06/01 03:02:40;;;;;;;2.77;2.57;;;;;;;;;;5073248;28;20206;-80
2022/06/01 03:05:07;;;;;;;4.20;2.80;;;;;;;;;;5074355;28;20233;-80
2022/06/01 03:07:36;;;;;;;3.47;3.17;;;;;;;;;;5077476;28;20201;-80
2022/06/01 03:10:03;;;;;;;3.47;2.93;;;;;;;;;;5076183;28;20246;-80
2022/06/01 03:12:30;;;;;;;3.20;3.00;;;;;;;;;;5076638;28;20213;-80
2022/06/01 03:14:57;;;;;;;5.33;2.93;;;;;;;;;;5076828;28;20229;-80
2022/06/01 03:17:24;;;;;;;4.00;2.90;;;;;;;;;;5077439;28;20225;-80
2022/06/01 03:19:51;;;;;;;3.30;3.00;;;;;;;;;;5075889;28;20300;-80
2022/06/01 03:22:18;;;;;;;3.63;2.87;;;;;;;;;;5076872;28;20225;-80
2022/06/01 03:24:47;;;;;;;3.13;2.93;;;;;;;;;;5075538;28;20212;-80
2022/06/01 03:27:14;;;;;;;3.00;2.80;;;;;;;;;;5076870;28;20208;-80
2022/06/01 03:29:41;;;;;;;3.20;2.83;;;;;;;;;;5075679;28;20307;-81
2022/06/01 03:32:08;;;;;;;3.47;3.10;;;;;;;;;;5076150;28;20634;-81
2022/06/01 03:34:35;;;;;;;3.50;2.70;;;;;;;;;;5077219;28;20601;-80
2022/06/01 03:37:03;;;;;;;4.47;2.70;;;;;;;;;;5085472;28;20244;-80
2022/06/01 03:39:30;;;;;;;3.03;2.57;;;;;;;;;;5079587;28;20213;-80
2022/06/01 03:41:59;;;;;;;3.70;3.00;;;;;;;;;;5077807;28;20321;-81
2022/06/01 03:47:11;;;;;;;4.80;3.53;;;;;;;;;;5082295;28;20642;-80
2022/06/01 03:49:38;;;;;;;4.43;2.90;;;;;;;;;;5079018;28;20209;-81
2022/06/01 03:52:06;;;;;;;6.17;2.87;;;;;;;;;;5077776;28;20613;-80
2022/06/01 03:54:33;;;;;;;4.03;3.10;;;;;;;;;;5078791;28;20201;-81
2022/06/01 03:57:02;;;;;;;3.27;2.97;;;;;;;;;;5078128;28;20245;-81
2022/06/01 03:59:29;;;;;;;5.47;2.93;;;;;;;;;;5078219;28;20343;-81
2022/06/01 04:01:56;;;;;;;3.37;3.00;;;;;;;;;;5065792;28;20357;-82
2022/06/01 04:04:23;;;;;;;7.17;4.07;;;;;;;;;;5075516;28;20201;-82
2022/06/01 04:06:50;;;;;;;4.37;3.00;;;;;;;;;;5076996;28;20233;-81
2022/06/01 04:09:17;;;;;;;3.37;3.07;;;;;;;;;;5077640;28;20209;-81
2022/06/01 04:11:44;;;;;;;4.93;3.53;;;;;;;;;;5078027;28;20241;-81
2022/06/01 04:14:13;;;;;;;3.10;2.90;;;;;;;;;;5078861;28;20205;-80
2022/06/01 04:16:40;;;;;;;4.13;3.40;;;;;;;;;;5073893;28;20312;-79
2022/06/01 04:19:07;;;;;;;3.57;3.27;;;;;;;;;;5074042;28;20699;-79
2022/06/01 04:21:36;;;;;;;5.57;3.10;;;;;;;;;;5073354;28;20859;-80
2022/06/01 04:24:05;;;;;;;6.07;3.43;;;;;;;;;;5073687;28;20201;-80
2022/06/01 04:26:32;;;;;;;6.83;3.80;;;;;;;;;;5073458;28;20771;-80
2022/06/01 04:28:59;;;;;;;6.80;3.67;;;;;;;;;;5073593;28;20206;-77
2022/06/01 04:31:29;;;;;;;4.17;3.77;;;;;;;;;;5062767;28;20237;-78
2022/06/01 04:33:56;;;;;;;5.17;4.07;;;;;;;;;;5053212;28;20209;-77
2022/06/01 04:36:23;;;;;;;7.23;3.87;;;;;;;;;;5052640;28;20234;-79
2022/06/01 04:38:50;;;;;;;5.10;3.80;;;;;;;;;;5052987;28;20202;-77
2022/06/01 04:41:17;;;;;;;4.20;3.77;;;;;;;;;;5052588;28;20239;-78
2022/06/01 04:43:45;;;;;;;4.50;3.73;;;;;;;;;;5053016;28;20237;-77
2022/06/01 04:46:12;;;;;;;4.73;4.30;;;;;;;;;;5052677;28;20225;-77
2022/06/01 04:48:41;;;;;;;4.70;3.97;;;;;;;;;;5052854;28;20205;-78
2022/06/01 04:51:08;;;;;;;4.63;3.90;;;;;;;;;;5052290;28;20234;-78
2022/06/01 04:53:35;;;;;;;5.40;3.77;;;;;;;;;;5052801;28;20212;-77
2022/06/01 04:56:02;;;;;;;5.43;4.33;;;;;;;;;;5052204;28;20242;-77
2022/06/01 04:58:29;;;;;;;4.50;4.10;;;;;;;;;;5053401;28;20216;-79
2022/06/01 05:00:57;;;;;;;5.20;4.70;;;;;;;;;;5053451;28;20234;-77
2022/06/01 05:03:25;;;;;;;7.07;4.47;;;;;;;;;;5053525;28;20187;-77
2022/06/01 05:05:54;;;;;;;9.17;4.37;;;;;;;;;;5052073;28;20236;-78
2022/06/01 05:08:21;;;;;;;5.47;4.90;;;;;;;;;;5052641;28;20667;-77
2022/06/01 05:10:48;;;;;;;4.63;4.13;;;;;;;;;;5051727;28;20627;-78
2022/06/01 05:13:18;;;;;;;6.53;4.60;;;;;;;;;;5052447;28;20583;-78
2022/06/01 05:15:46;;;;;;;5.67;4.47;;;;;;;;;;5051749;28;20740;-77
2022/06/01 05:18:13;;;;;;;4.80;4.27;;;;;;;;;;5057303;28;20208;-78
2022/06/01 05:20:41;;;;;;;4.67;4.20;;;;;;;;;;5070973;28;20236;-78
2022/06/01 05:23:09;;;;;;;6.93;4.80;;;;;;;;;;5071860;28;20216;-79
2022/06/01 05:25:36;;;;;;;7.50;4.70;;;;;;;;;;5053955;28;20234;-79
2022/06/01 05:28:04;;;;;;;7.30;4.67;;;;;;;;;;5052022;28;20674;-79
2022/06/01 05:30:31;;;;;;;5.10;4.60;;;;;;;;;;5051527;28;20234;-79
2022/06/01 05:32:58;;;;;;;5.00;4.50;;;;;;;;;;5051853;28;20213;-78
2022/06/01 05:35:25;;;;;;;5.50;4.47;;;;;;;;;;5050807;28;20233;-78
2022/06/01 05:37:52;;;;;;;6.83;4.50;;;;;;;;;;5052114;28;20234;-78
2022/06/01 05:40:20;;;;;;;7.00;4.30;;;;;;;;;;5050786;28;20238;-79
2022/06/01 05:42:47;;;;;;;6.47;4.37;;;;;;;;;;5051613;28;20211;-78
2022/06/01 05:45:14;;;;;;;7.43;4.27;;;;;;;;;;5051227;28;20612;-78
2022/06/01 05:47:41;;;;;;;5.03;4.00;;;;;;;;;;5051135;28;20206;-78
2022/06/01 05:50:09;;;;;;;5.33;4.73;;;;;;;;;;5051380;28;20248;-78
2022/06/01 05:52:38;;;;;;;5.50;4.40;;;;;;;;;;5051621;28;20578;-78
2022/06/01 05:55:06;;;;;;;4.83;4.33;;;;;;;;;;5050845;28;20264;-79
2022/06/01 05:57:34;;;;;;;4.27;3.90;;;;;;;;;;5050881;28;20229;-78
2022/06/01 06:00:02;;;;;;;8.13;4.00;;;;;;;;;;5051128;28;20238;-79
2022/06/01 06:02:29;;;;;;;4.70;4.30;;;;;;;;;;5051807;28;20336;-78
2022/06/01 06:04:56;;;;;;;5.80;4.30;;;;;;;;;;5051597;28;20206;-79
2022/06/01 06:07:23;;;;;;;4.70;4.20;;;;;;;;;;5051966;28;20199;-78
2022/06/01 06:09:50;;;;;;;6.07;4.30;;;;;;;;;;5051867;28;20213;-79
2022/06/01 06:14:47;;;;;;;4.63;3.97;;;;;;;;;;5028128;28;20211;-78
2022/06/01 06:17:14;;;;;;;5.50;4.20;;;;;;;;;;5032954;28;20223;-79
2022/06/01 06:19:41;;;;;;;5.00;4.37;;;;;;;;;;5035381;28;20504;-78
2022/06/01 06:22:09;;;;;;;4.33;3.93;;;;;;;;;;5035331;28;20211;-78
2022/06/01 06:24:37;;;;;;;3.73;3.40;;;;;;;;;;5003792;28;20226;-78
2022/06/01 06:27:04;;;;;;;6.70;3.80;;;;;;;;;;5008744;28;20237;-79
2022/06/01 06:29:31;;;;;;;6.63;3.70;;;;;;;;;;5010371;28;20207;-79
2022/06/01 06:31:59;;;;;;;5.50;3.60;;;;;;;;;;5029863;28;20643;-78
2022/06/01 06:34:26;;;;;;;7.23;3.40;;;;;;;;;;5013814;28;20235;-79
2022/06/01 06:36:55;;;;;;;5.00;3.70;;;;;;;;;;5008295;28;20235;-79
2022/06/01 06:39:22;;;;;;;6.67;3.63;;;;;;;;;;5016936;28;20196;-78
2022/06/01 06:41:50;;;;;;;8.73;4.10;;;;;;;;;;5018641;28;20219;-79
2022/06/01 06:44:17;;;;;;;7.77;3.60;;;;;;;;;;5012287;28;20236;-79
2022/06/01 06:46:45;;;;;;;5.70;3.43;;;;;;;;;;4998664;28;20232;-78
2022/06/01 06:49:13;;;;;;;4.53;3.60;;;;;;;;;;4999598;28;20309;-79
2022/06/01 06:51:40;;;;;;;3.37;3.13;;;;;;;;;;4998058;28;20254;-78
2022/06/01 06:54:07;;;;;;;6.30;3.87;;;;;;;;;;4997796;28;20224;-78
2022/06/01 06:56:35;;;;;;;6.23;2.87;;;;;;;;;;4997120;28;20242;-78
2022/06/01 06:59:02;;;;;;;4.63;3.03;;;;;;;;;;4997376;28;20328;-78
2022/06/01 07:01:29;;;;;;;3.30;3.00;;;;;;;;;;4996112;28;20246;-78
2022/06/01 07:03:56;;;;;;;4.40;2.90;;;;;;;;;;4994932;28;20232;-78
2022/06/01 07:06:26;;;;;;;4.60;3.53;;;;;;;;;;4995581;28;20236;-78
2022/06/01 07:08:55;;;;;;;6.32;3.40;;;;;;;;;;4995745;28;20216;-78
2022/06/01 07:11:24;;;;;;;6.00;3.13;;;;;;;;;;4995592;28;20282;-78
2022/06/01 07:13:51;;;;;;;3.53;2.55;;;;;;;;;;4995201;28;20246;-78
2022/06/01 07:16:20;;;;;;;3.80;2.92;;;;;;;;;;4995872;28;20731;-77
2022/06/01 07:18:49;;;;;;;2.78;2.58;;;;;;;;;;5019457;28;20626;-78
2022/06/01 07:21:16;;;;;;;3.05;2.60;;;;;;;;;;5034554;28;20266;-78
2022/06/01 07:23:45;;;;;;;3.17;2.40;;;;;;;;;;5034734;28;20233;-78
2022/06/01 07:26:14;;;;;;;2.80;2.53;;;;;;;;;;5035300;28;20241;-79
2022/06/01 07:28:41;;;;;;;2.65;2.30;;;;;;;;;;5036469;28;20210;-78
2022/06/01 07:31:09;;;;;;;2.42;2.22;;;;;;;;;;5036826;28;20261;-78
2022/06/01 07:33:36;;;;;;;4.28;1.98;;;;;;;;;;5030711;28;20238;-79
2022/06/01 07:36:05;;;;;;;4.15;2.60;;;;;;;;;;5029457;28;20250;-79
2022/06/01 07:44:06;;;;;;;2.70;1.98;;;;;;;;;;5016169;28;20230;-79
2022/06/01 07:46:34;;;;;;;2.97;2.00;;;;;;;;;;5016381;28;20259;-79
2022/06/01 07:49:01;;;;;;;3.58;2.40;;;;;;;;;;5015750;28;20218;-78
2022/06/01 07:51:28;;;;;;;2.30;2.10;;;;;;;;;;5014611;28;20239;-79
2022/06/01 07:53:56;;;;;;;3.17;2.28;;;;;;;;;;5015215;28;20234;-78
2022/06/01 07:56:25;;;;;;;5.90;1.92;;;;;;;;;;5015445;28;20235;-78
2022/06/01 07:58:52;;;;;;;2.78;1.88;;;;;;;;;;4997840;28;20224;-80
2022/06/01 08:01:21;;;;;;;4.32;1.80;;;;;;;;;;5014148;28;20238;-80
2022/06/01 08:03:48;;;;;;;2.65;1.60;;;;;;;;;;5026875;28;20233;-80
2022/06/01 08:06:15;;;;;;;1.60;1.50;;;;;;;;;;5016358;28;20269;-80
2022/06/01 08:08:42;;;;;;;3.10;1.50;;;;;;;;;;5017553;28;20204;-81
2022/06/01 08:11:09;;;;;;;2.50;1.48;;;;;;;;;;5016537;28;20246;-81
2022/06/01 08:13:37;;;;;;;2.40;2.10;;;;;;;;;;5015988;28;20714;-79
2022/06/01 08:16:04;;;;;;;3.88;1.38;;;;;;;;;;5005952;28;20235;-79
2022/06/01 08:18:31;;;;;;;4.00;1.52;;;;;;;;;;5003209;28;20288;-79
2022/06/01 08:20:58;;;;;;;2.88;1.60;;;;;;;;;;5015965;28;20239;-79
2022/06/01 08:23:29;;;;;;;1.80;1.45;;;;;;;;;;5015995;28;20224;-79
2022/06/01 08:25:56;;;;;;;2.33;1.63;;;;;;;;;;5015311;28;20326;-79
2022/06/01 08:28:24;;;;;;;1.95;1.40;;;;;;;;;;5017166;28;20203;-81
2022/06/01 08:30:52;;;;;;;1.17;1.08;;;;;;;;;;5016707;28;20246;-79
2022/06/01 08:33:20;;;;;;;3.15;1.30;;;;;;;;;;5016205;28;20618;-80
2022/06/01 08:35:49;;;;;;;1.48;0.93;;;;;;;;;;5015758;28;20758;-80
2022/06/01 08:38:16;;;;;;;1.67;1.17;;;;;;;;;;5016656;28;20227;-79
2022/06/01 08:40:49;;;;;;;1.35;1.10;;;;;;;;;;5016173;28;20255;-79
2022/06/01 08:43:17;;;;;;;4.32;0.90;;;;;;;;;;5015488;28;20723;-79
2022/06/01 08:45:46;;;;;;;1.10;1.10;;;;;;;;;;5016119;28;20234;-79
2022/06/01 08:48:17;;;;;;;0.88;0.88;;;;;;;;;;5016416;28;20242;-81
2022/06/01 08:50:44;;;;;;;2.33;1.00;;;;;;;;;;5016854;28;20283;-79
2022/06/01 08:53:11;;;;;;;2.03;1.10;;;;;;;;;;5016122;28;20231;-79
2022/06/01 08:55:44;;;;;;;1.20;0.73;;;;;;;;;;5015453;28;20228;-80
2022/06/01 08:58:13;;;;;;;3.58;1.02;;;;;;;;;;5010988;28;20235;-79
2022/06/01 09:00:43;;;;;;;1.58;0.88;;;;;;;;;;4996192;28;20236;-80
2022/06/01 09:03:14;;;;;;;2.38;1.05;;;;;;;;;;5017595;28;20222;-81
2022/06/01 09:05:44;;;;;;;2.78;1.00;;;;;;;;;;5021625;28;20251;-80
2022/06/01 09:08:13;;;;;;;2.22;1.40;;;;;;;;;;5014821;28;20648;-79
2022/06/01 09:10:46;;;;;;;2.60;1.30;;;;;;;;;;5013714;28;20319;-80
2022/06/01 09:13:15;;;;;;;1.30;1.02;;;;;;;;;;5004116;28;20240;-80
2022/06/01 09:15:46;;;;;;;2.97;1.25;;;;;;;;;;5006607;28;20241;-80
2022/06/01 09:18:14;;;;;;;2.08;1.17;;;;;;;;;;5015186;28;20238;-79
2022/06/01 09:23:27;;;;;;;2.08;1.20;;;;;;;;;;5014164;28;20230;-80
2022/06/01 09:25:55;;;;;;;2.67;1.40;;;;;;;;;;5013002;28;20315;-79
2022/06/01 09:28:24;;;;;;;2.47;1.33;;;;;;;;;;5013643;28;20217;-80
2022/06/01 09:30:56;;;;;;;2.67;1.30;;;;;;;;;;5013193;28;20257;-80
2022/06/01 09:33:25;;;;;;;1.48;1.10;;;;;;;;;;5014421;28;20235;-80
2022/06/01 09:36:00;;;;;;;2.17;1.30;;;;;;;;;;5012797;28;20243;-79
2022/06/01 09:38:37;;;;;;;2.78;1.40;;;;;;;;;;5012788;28;20242;-81
2022/06/01 09:41:05;;;;;;;1.65;1.25;;;;;;;;;;5012967;28;20424;-80
2022/06/01 09:43:32;;;;;;;2.03;1.33;;;;;;;;;;5014020;28;20584;-80
2022/06/01 09:46:00;;;;;;;2.05;1.10;;;;;;;;;;5010955;28;20245;-81
2022/06/01 09:48:30;;;;;;;3.80;1.60;;;;;;;;;;5012791;28;20266;-80
2022/06/01 09:51:07;;;;;;;1.48;1.23;;;;;;;;;;5012161;28;20723;-80
2022/06/01 09:53:41;;;;;;;2.13;1.30;;;;;;;;;;5012175;28;20226;-81
2022/06/01 09:56:08;;;;;;;2.67;1.20;;;;;;;;;;5012481;28;20239;-81
2022/06/01 10:06:54;;;;;;;3.00;0.98;;;;;;;;;;5012966;28;20241;-80
2022/06/01 10:09:23;;;;;;;2.38;1.20;;;;;;;;;;5013713;28;20215;-80
2022/06/01 10:11:52;;;;;;;1.60;1.10;;;;;;;;;;5011438;28;20602;-80
2022/06/01 10:14:21;;;;;;;0.75;0.75;;;;;;;;;;5012622;28;20258;-81
2022/06/01 10:16:54;;;;;;;2.55;0.82;;;;;;;;;;5016699;28;20243;-80
2022/06/01 10:19:24;;;;;;;3.67;0.90;;;;;;;;;;5017938;28;20237;-80
2022/06/01 10:21:55;;;;;;;5.53;1.27;;;;;;;;;;5003107;28;20228;-80
2022/06/01 10:24:28;;;;;;;2.72;1.00;;;;;;;;;;5000447;28;20635;-80
2022/06/01 10:26:58;;;;;;;1.00;0.75;;;;;;;;;;5019282;28;20243;-81
2022/06/01 10:29:27;;;;;;;4.00;1.02;;;;;;;;;;5017491;28;20230;-80
2022/06/01 10:31:57;;;;;;;1.30;0.90;;;;;;;;;;5010403;28;20234;-80
2022/06/01 10:34:26;;;;;;;4.22;1.10;;;;;;;;;;5016999;28;20234;-80
2022/06/01 10:36:56;;;;;;;1.02;0.93;;;;;;;;;;5016962;28;20730;-80
2022/06/01 10:39:27;;;;;;;0.80;0.75;;;;;;;;;;5017543;28;20236;-81
2022/06/01 10:42:01;;;;;;;2.10;1.08;;;;;;;;;;5017605;28;20239;-83
2022/06/01 10:44:31;;;;;;;1.02;0.93;;;;;;;;;;5003482;28;20231;-80
2022/06/01 10:47:01;;;;;;;1.73;1.15;;;;;;;;;;5011870;28;20231;-81
2022/06/01 10:49:40;;;;;;;2.53;1.10;;;;;;;;;;5013778;28;20683;-81
2022/06/01 10:52:12;;;;;;;1.10;1.00;;;;;;;;;;5012585;28;20585;-81
2022/06/01 10:54:43;;;;;;;0.82;0.77;;;;;;;;;;5016606;28;20232;-81
2022/06/01 10:57:11;;;;;;;0.65;0.65;;;;;;;;;;5016003;28;20211;-81
2022/06/01 10:59:39;;;;;;;1.60;1.00;;;;;;;;;;4997214;28;20251;-80
2022/06/01 11:02:12;;;;;;;2.28;1.02;;;;;;;;;;4996768;28;20188;-81
2022/06/01 11:04:46;;;;;;;0.90;0.90;;;;;;;;;;4996504;28;20576;-81
2022/06/01 11:07:27;;;;;;;1.67;0.80;;;;;;;;;;4997850;28;20215;-81
2022/06/01 11:10:02;;;;;;;1.17;0.73;;;;;;;;;;4996778;28;20219;-81
2022/06/01 11:12:35;;;;;;;1.08;0.80;;;;;;;;;;4997709;28;20215;-81
2022/06/01 11:15:08;;;;;;;0.80;0.63;;;;;;;;;;4996941;28;20707;-81
2022/06/01 11:17:37;;;;;;;1.40;0.90;;;;;;;;;;5016152;28;20207;-80
2022/06/01 11:20:14;;;;;;;1.02;0.70;;;;;;;;;;5016255;28;20241;-81
2022/06/01 11:22:47;;;;;;;0.85;0.70;;;;;;;;;;4997699;28;20232;-80
2022/06/01 11:25:19;;;;;;;1.35;0.85;;;;;;;;;;4996104;28;20239;-81
2022/06/01 11:27:50;;;;;;;0.95;0.73;;;;;;;;;;5009993;28;20652;-81
2022/06/01 11:30:19;;;;;;;1.33;0.75;;;;;;;;;;5010902;28;20238;-80
2022/06/01 11:32:49;;;;;;;0.75;0.75;;;;;;;;;;5016643;28;20238;-81
2022/06/01 11:35:20;;;;;;;0.63;0.47;;;;;;;;;;5013297;28;20235;-81
2022/06/01 11:37:50;;;;;;;1.25;0.75;;;;;;;;;;5016608;28;20238;-83
2022/06/01 11:40:21;;;;;;;1.00;0.60;;;;;;;;;;5016556;28;20246;-80
2022/06/01 11:42:50;;;;;;;1.35;0.70;;;;;;;;;;5005745;28;20235;-81
2022/06/01 11:45:19;;;;;;;1.25;0.75;;;;;;;;;;5015974;28;20243;-80
2022/06/01 11:47:47;;;;;;;1.85;0.70;;;;;;;;;;5016018;28;20710;-81
2022/06/01 11:50:18;;;;;;;0.75;0.75;;;;;;;;;;5016303;28;20235;-81
2022/06/01 11:52:46;;;;;;;0.88;0.73;;;;;;;;;;5016635;28;20227;-80
2022/06/01 11:55:23;;;;;;;0.73;0.73;;;;;;;;;;5015912;28;20246;-81
2022/06/01 11:57:52;;;;;;;2.88;0.57;;;;;;;;;;5017020;28;20207;-80
2022/06/01 12:00:21;;;;;;;1.27;0.73;;;;;;;;;;5016010;28;20254;-81
2022/06/01 12:02:50;;;;;;;2.05;0.80;;;;;;;;;;5006487;28;20220;-81
2022/06/01 12:05:23;;;;;;;1.13;0.75;;;;;;;;;;5012907;28;20703;-81
2022/06/01 12:07:52;;;;;;;1.65;1.50;;;;;;;;;;5013421;28;20207;-81
2022/06/01 12:10:27;;;;;;;1.95;0.73;;;;;;;;;;5015814;28;20243;-81
2022/06/01 12:13:01;;;;;;;2.00;0.93;;;;;;;;;;5015622;28;20294;-84
2022/06/01 12:15:32;;;;;;;1.35;0.88;;;;;;;;;;5005902;28;20242;-82
2022/06/01 12:18:00;;;;;;;2.25;0.82;;;;;;;;;;5013282;28;20671;-84
2022/06/01 12:20:46;;;;;;;2.80;0.90;;;;;;;;;;5012946;28;20228;-83
2022/06/01 12:29:31;;;;;;;2.15;0.90;;;;;;;;;;5013199;28;20210;-83
2022/06/01 12:32:12;;;;;;;1.55;0.70;;;;;;;;;;5012420;28;20656;-82
2022/06/01 12:34:46;;;;;;;2.67;0.90;;;;;;;;;;5011967;28;20223;-83
2022/06/01 12:37:18;;;;;;;1.75;0.80;;;;;;;;;;4999396;28;20665;-83
2022/06/01 12:39:50;;;;;;;2.22;0.50;;;;;;;;;;4992883;28;20235;-84
2022/06/01 12:42:21;;;;;;;0.85;0.80;;;;;;;;;;5010717;28;20207;-82
2022/06/01 12:44:50;;;;;;;1.58;0.80;;;;;;;;;;4999675;28;20299;-83
2022/06/01 12:47:24;;;;;;;0.93;0.60;;;;;;;;;;4994656;28;20683;-82
2022/06/01 12:49:51;;;;;;;1.38;0.70;;;;;;;;;;4995937;28;20217;-82
2022/06/01 12:52:19;;;;;;;1.08;0.98;;;;;;;;;;4995490;28;20203;-83
2022/06/01 12:54:54;;;;;;;0.82;0.82;;;;;;;;;;4993487;28;20188;-83
2022/06/01 12:57:26;;;;;;;2.17;0.68;;;;;;;;;;4996927;28;20203;-82
2022/06/01 12:59:57;;;;;;;0.77;0.70;;;;;;;;;;4994321;28;20215;-82
2022/06/01 13:02:24;;;;;;;2.50;0.77;;;;;;;;;;5014790;28;20202;-84
2022/06/01 13:04:52;;;;;;;4.18;1.00;;;;;;;;;;5033886;28;20221;-82
2022/06/01 13:07:20;;;;;;;1.58;1.00;;;;;;;;;;5035139;28;20245;-83
2022/06/01 13:09:47;;;;;;;1.08;0.70;;;;;;;;;;5034165;28;20202;-86
2022/06/01 13:12:16;;;;;;;1.83;0.70;;;;;;;;;;5035202;28;20214;-82
2022/06/01 13:14:45;;;;;;;1.48;0.68;;;;;;;;;;5034335;28;20218;-83
2022/06/01 13:17:31;;;;;;;1.50;0.57;;;;;;;;;;5058875;28;20187;-80
2022/06/01 13:19:59;;;;;;;1.58;0.77;;;;;;;;;;5057508;28;20222;-82
2022/06/01 13:22:29;;;;;;;2.28;0.73;;;;;;;;;;5017731;28;20208;-85
2022/06/01 13:24:58;;;;;;;2.85;0.98;;;;;;;;;;5006111;28;20239;-83
2022/06/01 13:27:25;;;;;;;0.60;0.50;;;;;;;;;;5015322;28;20203;-83
2022/06/01 13:29:58;;;;;;;3.17;1.13;;;;;;;;;;5015267;28;20215;-85
2022/06/01 13:32:30;;;;;;;2.30;0.70;;;;;;;;;;5016801;28;20646;-86
2022/06/01 13:35:03;;;;;;;0.75;0.57;;;;;;;;;;5015928;28;20294;-84
2022/06/01 13:37:31;;;;;;;1.38;0.93;;;;;;;;;;5016110;28;20262;-84
2022/06/01 13:40:00;;;;;;;3.65;0.75;;;;;;;;;;5015577;28;20703;-85
2022/06/01 13:42:32;;;;;;;0.75;0.60;;;;;;;;;;5016548;28;20214;-84
2022/06/01 13:45:10;;;;;;;2.28;0.75;;;;;;;;;;5014813;28;20235;-81
2022/06/01 13:47:40;;;;;;;0.85;0.70;;;;;;;;;;5016170;28;20221;-83
2022/06/01 13:50:19;;;;;;;2.72;0.80;;;;;;;;;;5012601;28;20242;-82
2022/06/01 13:52:47;;;;;;;2.75;0.60;;;;;;;;;;5012492;28;20227;-83
2022/06/01 13:55:18;;;;;;;1.48;0.60;;;;;;;;;;5011529;28;20246;-82
2022/06/01 13:57:49;;;;;;;1.25;0.68;;;;;;;;;;5012176;28;20211;-82
2022/06/01 14:00:21;;;;;;;1.80;0.60;;;;;;;;;;5019669;28;20261;-81
2022/06/01 14:02:53;;;;;;;1.38;0.70;;;;;;;;;;5015626;28;20730;-83
2022/06/01 14:05:21;;;;;;;2.22;0.75;;;;;;;;;;5011932;28;20232;-81
2022/06/01 14:07:50;;;;;;;1.17;1.00;;;;;;;;;;5013063;28;20214;-85
2022/06/01 14:10:17;;;;;;;1.08;0.73;;;;;;;;;;5012255;28;20235;-83
2022/06/01 14:12:47;;;;;;;0.88;0.80;;;;;;;;;;5011953;28;20242;-83
2022/06/01 14:15:15;;;;;;;2.55;0.88;;;;;;;;;;5012383;28;20238;-83
2022/06/01 14:17:45;;;;;;;0.98;0.60;;;;;;;;;;5012714;28;20207;-82
2022/06/01 14:20:12;;;;;;;1.38;0.82;;;;;;;;;;5010872;28;20239;-82
2022/06/01 14:22:40;;;;;;;0.80;0.40;;;;;;;;;;5011500;28;20238;-79
2022/06/01 14:30:37;;;;;;;1.73;0.68;;;;;;;;;;5013071;28;20237;-79
2022/06/01 14:33:07;;;;;;;3.17;0.55;;;;;;;;;;5015030;28;20231;-80
2022/06/01 14:35:34;;;;;;;1.10;0.40;;;;;;;;;;5012360;28;20235;-79
2022/06/01 14:38:02;;;;;;;2.83;0.70;;;;;;;;;;5012381;28;20218;-78
2022/06/01 14:40:29;;;;;;;2.20;0.73;;;;;;;;;;5011453;28;20238;-78
2022/06/01 14:42:57;;;;;;;0.47;0.47;;;;;;;;;;5012330;28;20227;-81
2022/06/01 14:45:24;;;;;;;1.20;0.70;;;;;;;;;;5013275;28;20239;-78
2022/06/01 14:47:51;;;;;;;3.45;0.60;;;;;;;;;;5013558;28;20210;-79
2022/06/01 14:50:20;;;;;;;1.15;0.70;;;;;;;;;;5011904;28;20866;-79
2022/06/01 14:52:47;;;;;;;0.70;0.70;;;;;;;;;;5011898;28;20255;-78
2022/06/01 14:55:14;;;;;;;0.47;0.47;;;;;;;;;;5011098;28;20243;-78
2022/06/01 14:57:41;;;;;;;2.67;0.60;;;;;;;;;;5011923;28;20630;-78
2022/06/01 15:00:09;;;;;;;1.75;0.50;;;;;;;;;;5013363;28;20254;-78
2022/06/01 15:02:38;;;;;;;0.57;0.50;;;;;;;;;;5015169;28;20200;-83
2022/06/01 15:05:06;;;;;;;1.80;0.68;;;;;;;;;;5014784;28;20247;-82
2022/06/01 15:07:35;;;;;;;1.75;0.85;;;;;;;;;;5015016;28;20207;-81
2022/06/01 15:10:02;;;;;;;1.23;0.45;;;;;;;;;;5014998;28;20239;-78
2022/06/01 15:12:29;;;;;;;0.98;0.70;;;;;;;;;;5016223;28;20207;-78
2022/06/01 15:14:57;;;;;;;1.08;0.70;;;;;;;;;;5016680;28;20243;-77
2022/06/01 15:17:25;;;;;;;0.38;0.38;;;;;;;;;;5016854;28;20207;-78
2022/06/01 15:19:53;;;;;;;3.28;0.77;;;;;;;;;;5014323;28;20227;-78
2022/06/01 15:22:20;;;;;;;1.83;0.85;;;;;;;;;;5016172;28;20241;-78
2022/06/01 15:24:52;;;;;;;1.05;0.50;;;;;;;;;;5016171;28;20204;-79
2022/06/01 15:27:22;;;;;;;0.85;0.40;;;;;;;;;;5015845;28;20208;-78
2022/06/01 15:40:50;;;;;;;1.40;0.52;;;;;;;;;;5014005;28;20313;-79
2022/06/01 15:43:17;;;;;;;0.77;0.77;;;;;;;;;;5014449;28;20219;-78
2022/06/01 15:45:45;;;;;;;0.70;0.55;;;;;;;;;;5013909;28;20236;-79